Time;durP1;ratioP1;P1;durP2;ratioP2;P2;SDS_P1;SDS_P2;PMS_P1;PMS_P2;Temp;Humidity;BMP_temperature;BMP_pressure;BME280_temperature;BME280_humidity;BME280_pressure;Samples;Min_cycle;Max_cycle;Signal;HPM_P1;HPM_P2
2023/07/28 00:01:34;;;;;;;;;;;;;;;21.47;57.53;100501.84;4099731;29;20337;-59
2023/07/28 00:03:35;;;;;;;;;;;;;;;21.47;57.40;100503.66;4099220;29;19929;-59
2023/07/28 00:05:37;;;;;;;;;;;;;;;21.47;57.60;100506.31;4099674;29;19922;-59
2023/07/28 00:07:39;;;;;;;;;;;;;;;21.47;57.27;100517.03;4098757;29;20354;-62
2023/07/28 00:09:40;;;;;;;;;;;;;;;21.48;57.36;100513.38;4099286;29;19926;-58
2023/07/28 00:11:42;;;;;;;;;;;;;;;21.46;57.19;100515.31;4099550;29;19928;-59
2023/07/28 00:13:43;;;;;;;;;;;;;;;21.46;57.44;100518.88;4088818;29;19978;-59
2023/07/28 00:15:45;;;;;;;;;;;;;;;21.45;57.48;100514.50;4099544;29;19923;-59
2023/07/28 00:17:47;;;;;;;;;;;;;;;21.44;57.22;100503.94;4098486;29;20353;-58
2023/07/28 00:19:48;;;;;;;;;;;;;;;21.44;57.41;100511.94;4100032;28;19923;-58
2023/07/28 00:21:50;;;;;;;;;;;;;;;21.44;57.59;100506.59;4102678;29;19928;-59
2023/07/28 00:23:52;;;;;;;;;;;;;;;21.43;57.39;100508.41;4102162;28;19922;-58
2023/07/28 00:25:54;;;;;;;;;;;;;;;21.43;57.63;100507.56;4102489;29;20020;-64
2023/07/28 00:27:58;;;;;;;;;;;;;;;21.43;57.15;100510.25;4101950;29;19968;-58
2023/07/28 00:30:00;;;;;;;;;;;;;;;21.42;57.45;100508.56;4102577;29;20360;-58
2023/07/28 00:32:01;;;;;;;;;;;;;;;21.43;57.61;100504.91;4102771;29;19929;-58
2023/07/28 00:34:03;;;;;;;;;;;;;;;21.42;57.43;100509.38;4102480;29;19977;-58
2023/07/28 00:36:04;;;;;;;;;;;;;;;21.42;57.43;100512.06;4102457;29;19926;-58
2023/07/28 00:38:06;;;;;;;;;;;;;;;21.42;57.24;100511.22;4101348;29;19985;-60
2023/07/28 00:40:08;;;;;;;;;;;;;;;21.41;57.56;100509.53;4102608;29;20029;-58
2023/07/28 00:42:09;;;;;;;;;;;;;;;21.40;57.26;100503.34;4102738;29;19922;-58
2023/07/28 00:44:11;;;;;;;;;;;;;;;21.39;57.58;100501.63;4102222;29;20374;-58
2023/07/28 00:46:13;;;;;;;;;;;;;;;21.39;57.31;100502.47;4102276;29;19927;-60
2023/07/28 00:48:16;;;;;;;;;;;;;;;21.39;57.63;100507.00;4101650;29;19934;-60
2023/07/28 00:50:18;;;;;;;;;;;;;;;21.39;57.48;100507.81;4102181;29;19933;-60
2023/07/28 00:52:19;;;;;;;;;;;;;;;21.39;57.71;100510.50;4102079;29;19993;-59
2023/07/28 00:54:21;;;;;;;;;;;;;;;21.33;57.68;100502.16;4102077;28;19922;-60
2023/07/28 00:56:23;;;;;;;;;;;;;;;21.38;57.27;100508.78;4102048;29;19922;-60
2023/07/28 00:58:24;;;;;;;;;;;;;;;21.39;57.65;100504.31;4102098;29;19965;-59
2023/07/28 01:00:26;;;;;;;;;;;;;;;21.37;57.83;100511.59;4102133;29;19958;-57
2023/07/28 01:02:28;;;;;;;;;;;;;;;21.37;57.59;100508.94;4101062;29;20025;-60
2023/07/28 01:04:30;;;;;;;;;;;;;;;21.37;57.48;100512.47;4102063;29;19923;-59
2023/07/28 01:06:50;;;;;;;;;;;;;;;21.37;57.61;100514.28;4101427;29;19923;-60
2023/07/28 01:09:01;;;;;;;;;;;;;;;21.37;57.63;100516.97;4102021;29;20388;-59
2023/07/28 01:11:03;;;;;;;;;;;;;;;21.36;57.34;100515.25;4101771;29;19977;-60
2023/07/28 01:13:04;;;;;;;;;;;;;;;21.36;57.72;100508.09;4102171;29;19926;-60
2023/07/28 01:15:11;;;;;;;;;;;;;;;21.35;57.85;100506.41;4101693;29;20580;-60
2023/07/28 01:17:19;;;;;;;;;;;;;;;21.35;57.89;100506.41;4101394;29;19929;-60
2023/07/28 01:19:27;;;;;;;;;;;;;;;21.35;57.59;100508.19;4101557;29;19926;-60
2023/07/28 01:21:30;;;;;;;;;;;;;;;21.34;57.52;100502.03;4101527;29;19929;-60
2023/07/28 01:23:32;;;;;;;;;;;;;;;21.34;57.62;100510.03;4102004;29;19927;-58
2023/07/28 01:25:43;;;;;;;;;;;;;;;21.35;57.73;100514.41;4101653;28;20349;-59
2023/07/28 01:27:45;;;;;;;;;;;;;;;21.35;57.76;100511.75;4100962;29;20417;-59
2023/07/28 01:29:47;;;;;;;;;;;;;;;21.34;57.56;100515.41;4101694;29;19977;-59
2023/07/28 01:31:50;;;;;;;;;;;;;;;21.34;57.33;100512.72;4100536;28;20011;-59
2023/07/28 01:33:52;;;;;;;;;;;;;;;21.34;57.89;100507.38;4100451;29;19922;-60
2023/07/28 01:35:54;;;;;;;;;;;;;;;21.34;57.57;100511.88;4101202;29;19927;-60
2023/07/28 01:37:55;;;;;;;;;;;;;;;21.33;57.75;100505.66;4101055;29;19965;-60
2023/07/28 01:39:57;;;;;;;;;;;;;;;21.32;57.81;100503.97;4101554;29;19959;-60
2023/07/28 01:41:58;;;;;;;;;;;;;;;21.33;57.70;100503.00;4101270;29;19961;-60
2023/07/28 01:44:00;;;;;;;;;;;;;;;21.33;57.74;100502.16;4101605;29;19950;-59
2023/07/28 01:46:01;;;;;;;;;;;;;;;21.32;57.62;100497.78;4101359;29;19928;-59
2023/07/28 01:48:03;;;;;;;;;;;;;;;21.32;57.96;100500.47;4100588;29;20354;-60
2023/07/28 01:50:05;;;;;;;;;;;;;;;21.31;57.46;100502.28;4101246;29;19945;-57
2023/07/28 01:52:07;;;;;;;;;;;;;;;21.31;57.79;100493.41;4101274;29;19933;-60
2023/07/28 01:54:08;;;;;;;;;;;;;;;21.31;57.81;100493.41;4084288;29;19955;-59
2023/07/28 01:56:10;;;;;;;;;;;;;;;21.31;57.90;100491.59;4101210;29;19922;-57
2023/07/28 01:58:12;;;;;;;;;;;;;;;21.31;57.83;100488.06;4100536;29;19926;-57
2023/07/28 02:00:13;;;;;;;;;;;;;;;21.31;57.63;100488.06;4101418;29;19922;-59
2023/07/28 02:02:15;;;;;;;;;;;;;;;21.29;57.70;100480.16;4101007;29;20017;-59
2023/07/28 02:04:16;;;;;;;;;;;;;;;21.30;57.40;100489.03;4101120;29;20020;-58
2023/07/28 02:06:18;;;;;;;;;;;;;;;21.30;57.40;100494.38;4101018;29;19922;-59
2023/07/28 02:08:20;;;;;;;;;;;;;;;21.29;57.24;100492.69;4100443;29;19922;-59
2023/07/28 02:10:22;;;;;;;;;;;;;;;21.28;57.35;100497.19;4101223;29;19927;-59
2023/07/28 02:12:23;;;;;;;;;;;;;;;21.28;57.83;100493.69;4100921;29;19966;-59
2023/07/28 02:14:25;;;;;;;;;;;;;;;21.27;57.78;100490.16;4101013;29;19926;-59
2023/07/28 02:16:30;;;;;;;;;;;;;;;21.28;57.45;100496.34;4101006;29;19929;-59
2023/07/28 02:18:32;;;;;;;;;;;;;;;21.28;57.63;100499.88;4099906;29;20361;-59
2023/07/28 02:20:35;;;;;;;;;;;;;;;21.27;57.53;100492.81;4101094;29;20008;-60
2023/07/28 02:22:37;;;;;;;;;;;;;;;21.28;57.42;100489.16;4100674;29;19922;-59
2023/07/28 02:24:39;;;;;;;;;;;;;;;21.27;57.74;100478.59;4100770;28;19922;-59
2023/07/28 02:26:40;;;;;;;;;;;;;;;21.27;57.52;100481.28;4100504;29;20335;-60
2023/07/28 02:28:42;;;;;;;;;;;;;;;21.26;57.54;100479.59;4100700;29;20730;-59
2023/07/28 02:30:43;;;;;;;;;;;;;;;21.25;57.81;100484.06;4100821;29;19957;-60
2023/07/28 02:32:45;;;;;;;;;;;;;;;21.26;57.68;100483.09;4100916;29;20043;-60
2023/07/28 02:34:47;;;;;;;;;;;;;;;21.26;57.67;100484.94;4100625;29;20313;-59
2023/07/28 02:36:48;;;;;;;;;;;;;;;21.26;57.49;100485.75;4100354;29;19929;-60
2023/07/28 02:38:50;;;;;;;;;;;;;;;21.25;57.54;100481.38;4100396;29;19995;-60
2023/07/28 02:40:51;;;;;;;;;;;;;;;21.25;57.44;100481.38;4100851;29;20413;-60
2023/07/28 02:42:53;;;;;;;;;;;;;;;21.26;57.36;100475.06;4100327;28;19957;-60
2023/07/28 02:44:54;;;;;;;;;;;;;;;21.25;57.41;100477.88;4100878;29;19945;-59
2023/07/28 02:46:56;;;;;;;;;;;;;;;21.26;57.32;100479.59;4100190;29;19922;-59
2023/07/28 02:48:57;;;;;;;;;;;;;;;21.27;57.61;100481.28;4099930;29;20377;-59
2023/07/28 02:50:59;;;;;;;;;;;;;;;21.26;57.65;100476.91;4100513;29;20313;-59
2023/07/28 02:53:01;;;;;;;;;;;;;;;21.25;57.48;100481.38;4100462;29;20001;-60
2023/07/28 02:55:02;;;;;;;;;;;;;;;21.26;57.46;100480.41;4100448;29;20013;-59
2023/07/28 02:57:04;;;;;;;;;;;;;;;21.27;57.59;100490.16;4100051;29;19938;-59
2023/07/28 02:59:05;;;;;;;;;;;;;;;21.26;58.49;100483.09;4100318;29;19935;-59
2023/07/28 03:01:07;;;;;;;;;;;;;;;21.26;58.44;100477.75;4100379;29;19926;-60
2023/07/28 03:03:12;;;;;;;;;;;;;;;21.25;57.62;100478.72;4099996;29;20355;-59
2023/07/28 03:05:14;;;;;;;;;;;;;;;21.24;57.40;100479.72;4100474;29;19922;-58
2023/07/28 03:07:16;;;;;;;;;;;;;;;21.25;57.76;100481.38;4099838;29;19926;-59
2023/07/28 03:09:17;;;;;;;;;;;;;;;21.26;58.78;100490.28;4099988;29;19977;-60
2023/07/28 03:11:19;;;;;;;;;;;;;;;21.25;57.69;100486.75;4100281;29;20441;-60
2023/07/28 03:13:21;;;;;;;;;;;;;;;21.25;57.66;100494.75;4100280;29;19977;-59
2023/07/28 03:15:22;;;;;;;;;;;;;;;21.25;58.22;100486.75;4100277;28;19922;-61
2023/07/28 03:17:24;;;;;;;;;;;;;;;21.25;57.54;100493.94;4099371;29;20002;-60
2023/07/28 03:19:26;;;;;;;;;;;;;;;21.25;57.68;100491.25;4099670;29;19969;-59
2023/07/28 03:21:29;;;;;;;;;;;;;;;21.24;57.56;100493.09;4100002;29;19923;-59
2023/07/28 03:23:31;;;;;;;;;;;;;;;21.24;57.55;100493.09;4100001;29;19930;-61
2023/07/28 03:25:33;;;;;;;;;;;;;;;21.23;57.82;100500.25;4099998;28;19950;-59
2023/07/28 03:27:34;;;;;;;;;;;;;;;21.23;57.71;100496.75;4099572;29;19932;-59
2023/07/28 03:29:35;;;;;;;;;;;;;;;21.23;57.84;100494.91;4099880;29;19930;-59
2023/07/28 03:31:37;;;;;;;;;;;;;;;21.23;57.58;100494.06;4099780;29;19922;-59
2023/07/28 03:33:38;;;;;;;;;;;;;;;21.22;57.64;100503.06;4099912;29;19923;-59
2023/07/28 03:35:40;;;;;;;;;;;;;;;21.22;57.89;100493.19;4099841;29;19926;-59
2023/07/28 03:37:42;;;;;;;;;;;;;;;21.22;57.81;100490.53;4099134;29;20013;-59
2023/07/28 03:39:43;;;;;;;;;;;;;;;21.23;57.87;100494.06;4099555;29;20013;-60
2023/07/28 03:41:45;;;;;;;;;;;;;;;21.22;57.70;100497.72;4099870;29;19929;-59
2023/07/28 03:43:46;;;;;;;;;;;;;;;21.22;57.68;100489.69;4099937;29;20389;-59
2023/07/28 03:45:48;;;;;;;;;;;;;;;21.21;57.85;100488.81;4099119;29;19957;-59
2023/07/28 03:47:50;;;;;;;;;;;;;;;21.21;57.77;100491.50;4095232;29;20386;-59
2023/07/28 03:49:51;;;;;;;;;;;;;;;21.22;57.88;100487.00;4099552;29;19961;-59
2023/07/28 03:51:53;;;;;;;;;;;;;;;21.21;57.61;100485.31;4099552;29;19922;-59
2023/07/28 03:53:54;;;;;;;;;;;;;;;21.21;57.52;100483.47;4099539;28;20401;-60
2023/07/28 03:55:58;;;;;;;;;;;;;;;21.20;57.83;100483.63;4099211;29;19923;-59
2023/07/28 03:57:59;;;;;;;;;;;;;;;21.21;58.73;100479.97;4098864;29;19923;-59
2023/07/28 04:00:01;;;;;;;;;;;;;;;21.21;57.94;100479.97;4099140;29;19923;-60
2023/07/28 04:02:03;;;;;;;;;;;;;;;21.21;59.05;100483.47;4099624;29;19922;-59
2023/07/28 04:04:04;;;;;;;;;;;;;;;21.21;58.48;100482.63;4099707;29;19927;-60
2023/07/28 04:06:11;;;;;;;;;;;;;;;21.21;59.21;100480.81;4099443;29;20433;-60
2023/07/28 04:08:13;;;;;;;;;;;;;;;21.18;58.14;100473.06;4098704;29;20018;-60
2023/07/28 04:10:14;;;;;;;;;;;;;;;21.21;57.85;100477.28;4099415;29;19922;-59
2023/07/28 04:12:20;;;;;;;;;;;;;;;21.20;58.89;100472.91;4099334;29;20456;-60
2023/07/28 04:14:22;;;;;;;;;;;;;;;21.19;58.39;100468.53;4099558;29;20324;-59
2023/07/28 04:16:24;;;;;;;;;;;;;;;21.19;59.21;100471.22;4098906;29;19931;-60
2023/07/28 04:18:25;;;;;;;;;;;;;;;21.19;59.07;100476.56;4098619;29;19926;-59
2023/07/28 04:20:32;;;;;;;;;;;;;;;21.18;58.83;100465.03;4099196;29;20028;-60
2023/07/28 04:22:34;;;;;;;;;;;;;;;21.18;58.88;100477.53;4099211;29;19922;-59
2023/07/28 04:24:35;;;;;;;;;;;;;;;21.18;59.08;100477.53;4092055;29;20013;-60
2023/07/28 04:26:37;;;;;;;;;;;;;;;21.19;58.18;100476.56;4099039;29;19926;-59
2023/07/28 04:28:38;;;;;;;;;;;;;;;21.18;58.39;100475.72;4098547;29;19926;-59
2023/07/28 04:30:40;;;;;;;;;;;;;;;21.17;58.02;100470.50;4099107;29;19923;-60
2023/07/28 04:32:41;;;;;;;;;;;;;;;21.18;58.07;100474.88;4098919;29;19926;-59
2023/07/28 04:34:43;;;;;;;;;;;;;;;21.18;57.93;100472.19;4099496;29;19922;-59
2023/07/28 04:36:44;;;;;;;;;;;;;;;21.18;57.74;100481.06;4098959;29;19961;-59
2023/07/28 04:38:46;;;;;;;;;;;;;;;21.17;57.92;100474.03;4098570;28;19929;-59
2023/07/28 04:40:47;;;;;;;;;;;;;;;21.17;57.87;100482.06;4099314;29;19933;-59
2023/07/28 04:42:52;;;;;;;;;;;;;;;21.15;57.51;100478.66;4098512;29;20382;-59
2023/07/28 04:44:54;;;;;;;;;;;;;;;21.16;57.79;100484.88;4098698;29;19931;-59
2023/07/28 04:46:55;;;;;;;;;;;;;;;21.15;57.86;100483.16;4099019;29;20377;-60
2023/07/28 04:48:57;;;;;;;;;;;;;;;21.15;57.61;100480.50;4097309;29;20080;-60
2023/07/28 04:50:58;;;;;;;;;;;;;;;21.16;57.77;100482.19;4099364;29;19922;-59
2023/07/28 04:53:00;;;;;;;;;;;;;;;21.15;58.19;100478.66;4099171;29;20013;-59
2023/07/28 04:55:02;;;;;;;;;;;;;;;21.16;58.03;100495.56;4099255;29;20368;-59
2023/07/28 04:57:03;;;;;;;;;;;;;;;21.15;58.22;100483.16;4098843;29;19922;-60
2023/07/28 04:59:06;;;;;;;;;;;;;;;21.15;57.97;100494.69;4096918;29;20021;-60
2023/07/28 05:01:09;;;;;;;;;;;;;;;21.15;57.95;100488.50;4099330;29;20373;-59
2023/07/28 05:03:10;;;;;;;;;;;;;;;21.15;58.12;100488.50;4098777;29;20156;-59
2023/07/28 05:05:12;;;;;;;;;;;;;;;21.15;58.87;100481.31;4099189;29;19954;-59
2023/07/28 05:07:14;;;;;;;;;;;;;;;21.15;58.34;100480.50;4101277;28;20014;-60
2023/07/28 05:09:15;;;;;;;;;;;;;;;21.15;58.23;100485.84;4101635;29;19954;-59
2023/07/28 05:11:17;;;;;;;;;;;;;;;21.15;58.10;100491.19;4101901;29;19922;-60
2023/07/28 05:13:18;;;;;;;;;;;;;;;21.15;59.34;100484.00;4101639;29;20354;-59
2023/07/28 05:15:20;;;;;;;;;;;;;;;21.13;59.19;100488.66;4101983;29;20389;-59
2023/07/28 05:17:21;;;;;;;;;;;;;;;21.14;59.59;100501.03;4101352;29;19945;-59
2023/07/28 05:19:23;;;;;;;;;;;;;;;21.13;59.06;100495.81;4101676;29;20413;-59
2023/07/28 05:21:25;;;;;;;;;;;;;;;21.13;59.41;100494.00;4101783;29;19923;-59
2023/07/28 05:23:26;;;;;;;;;;;;;;;21.13;58.86;100495.81;4101523;29;19922;-60
2023/07/28 05:25:28;;;;;;;;;;;;;;;21.14;59.52;100484.13;4101682;28;20448;-59
2023/07/28 05:27:29;;;;;;;;;;;;;;;21.14;59.72;100489.47;4101064;29;19944;-59
2023/07/28 05:29:31;;;;;;;;;;;;;;;21.14;60.05;100485.00;4101241;29;20400;-58
2023/07/28 05:31:32;;;;;;;;;;;;;;;21.12;59.87;100491.44;4101667;29;19926;-59
2023/07/28 05:33:34;;;;;;;;;;;;;;;21.12;60.13;100486.94;4101505;29;19922;-58
2023/07/28 05:35:36;;;;;;;;;;;;;;;21.12;60.24;100491.44;4101823;29;20041;-59
2023/07/28 05:37:37;;;;;;;;;;;;;;;21.10;59.50;100494.25;4101231;29;19932;-59
2023/07/28 05:39:39;;;;;;;;;;;;;;;21.12;59.64;100497.63;4101390;29;19962;-60
2023/07/28 05:41:41;;;;;;;;;;;;;;;21.13;59.60;100495.81;4101175;29;19926;-59
2023/07/28 05:43:42;;;;;;;;;;;;;;;21.12;59.07;100503.00;4101409;29;20020;-58
2023/07/28 05:45:46;;;;;;;;;;;;;;;21.12;59.77;100505.66;4101632;29;20005;-59
2023/07/28 05:47:48;;;;;;;;;;;;;;;21.12;60.08;100494.97;4100968;29;19927;-57
2023/07/28 05:49:51;;;;;;;;;;;;;;;21.12;59.28;100494.09;4101297;29;19923;-58
2023/07/28 05:51:52;;;;;;;;;;;;;;;21.10;59.41;100494.25;4101404;29;20464;-58
2023/07/28 05:53:54;;;;;;;;;;;;;;;21.12;59.91;100494.97;4101050;29;19954;-58
2023/07/28 05:55:56;;;;;;;;;;;;;;;21.12;58.84;100494.09;4101454;29;19926;-58
2023/07/28 05:57:57;;;;;;;;;;;;;;;21.12;58.68;100494.97;4100523;29;20017;-59
2023/07/28 05:59:58;;;;;;;;;;;;;;;21.13;58.88;100501.16;4100797;29;19926;-58
2023/07/28 06:02:00;;;;;;;;;;;;;;;21.12;58.59;100494.97;4101405;29;19974;-59
2023/07/28 06:04:02;;;;;;;;;;;;;;;21.09;58.65;100497.88;4101161;29;20369;-58
2023/07/28 06:06:04;;;;;;;;;;;;;;;21.12;58.21;100502.13;4101072;29;19926;-58
2023/07/28 06:08:05;;;;;;;;;;;;;;;21.13;59.33;100501.16;4100514;29;19922;-59
2023/07/28 06:10:07;;;;;;;;;;;;;;;21.12;58.58;100502.13;4101073;29;19926;-58
2023/07/28 06:12:09;;;;;;;;;;;;;;;21.12;58.83;100499.44;4100795;29;20302;-58
2023/07/28 06:14:10;;;;;;;;;;;;;;;21.12;59.19;100511.00;4100951;29;19922;-59
2023/07/28 06:16:12;;;;;;;;;;;;;;;21.12;59.49;100513.69;4100827;29;19961;-58
2023/07/28 06:18:14;;;;;;;;;;;;;;;21.12;59.98;100511.00;4099936;28;19926;-59
2023/07/28 06:20:15;;;;;;;;;;;;;;;21.12;59.16;100508.34;4100643;29;19929;-58
2023/07/28 06:22:17;;;;;;;;;;;;;;;21.12;59.60;100510.16;4100714;29;19922;-59
2023/07/28 06:24:19;;;;;;;;;;;;;;;21.12;60.07;100513.69;4101071;28;19968;-59
2023/07/28 06:26:20;;;;;;;;;;;;;;;21.12;59.60;100512.81;4100557;29;19929;-59
2023/07/28 06:28:22;;;;;;;;;;;;;;;21.12;59.12;100518.16;4100113;29;19929;-59
2023/07/28 06:30:23;;;;;;;;;;;;;;;21.13;59.42;100514.53;4100636;29;20325;-59
2023/07/28 06:32:26;;;;;;;;;;;;;;;21.13;60.00;100519.88;4101035;29;19949;-59
2023/07/28 06:34:27;;;;;;;;;;;;;;;21.13;59.94;100514.53;4083766;29;19922;-59
2023/07/28 06:36:29;;;;;;;;;;;;;;;21.11;59.58;100521.84;4100613;29;19961;-58
2023/07/28 06:38:32;;;;;;;;;;;;;;;21.12;59.46;100526.19;4100150;29;19958;-59
2023/07/28 06:40:34;;;;;;;;;;;;;;;21.12;60.05;100527.06;4100241;29;19929;-58
2023/07/28 06:42:36;;;;;;;;;;;;;;;21.11;59.90;100524.53;4100779;29;19922;-60
2023/07/28 06:44:38;;;;;;;;;;;;;;;21.12;60.40;100528.88;4100731;29;20021;-59
2023/07/28 06:46:39;;;;;;;;;;;;;;;;;;4100431;29;20297;-59
2023/07/28 06:48:41;;;;;;;;;;;;;;;21.11;60.46;100529.88;4099844;29;20405;-59
2023/07/28 06:50:42;;;;;;;;;;;;;;;21.12;60.51;100528.88;4100405;29;19930;-59
2023/07/28 06:52:44;;;;;;;;;;;;;;;21.10;60.04;100526.31;4100371;29;19922;-59
2023/07/28 06:54:47;;;;;;;;;;;;;;;21.11;60.27;100532.53;4100062;29;19957;-59
2023/07/28 06:56:48;;;;;;;;;;;;;;;21.10;59.67;100534.34;4100197;29;20328;-59
2023/07/28 06:58:50;;;;;;;;;;;;;;;21.11;59.24;100537.88;4099747;29;19930;-58
2023/07/28 07:01:05;;;;;;;;;;;;;;;21.12;59.82;100535.06;4100125;29;19980;-59
2023/07/28 07:03:06;;;;;;;;;;;;;;;21.12;59.75;100536.88;4100330;29;20441;-59
2023/07/28 07:05:08;;;;;;;;;;;;;;;21.12;60.27;100537.75;4100250;29;19928;-59
2023/07/28 07:07:10;;;;;;;;;;;;;;;21.13;60.00;100543.94;4100120;29;19933;-59
2023/07/28 07:09:14;;;;;;;;;;;;;;;21.12;60.13;100544.91;4099073;29;19922;-59
2023/07/28 07:11:16;;;;;;;;;;;;;;;21.12;60.36;100543.09;4100098;29;19956;-59
2023/07/28 07:13:17;;;;;;;;;;;;;;;21.12;60.26;100547.59;4100045;29;19922;-59
2023/07/28 07:15:19;;;;;;;;;;;;;;;21.12;60.21;100551.13;4100185;29;20492;-59
2023/07/28 07:17:20;;;;;;;;;;;;;;;;;;4100107;29;20009;-59
2023/07/28 07:19:22;;;;;;;;;;;;;;;21.12;60.21;100555.59;4099190;29;19922;-58
2023/07/28 07:21:24;;;;;;;;;;;;;;;21.12;60.70;100561.81;4099798;29;20381;-58
2023/07/28 07:23:25;;;;;;;;;;;;;;;21.12;60.70;100559.16;4098746;29;20309;-58
2023/07/28 07:25:27;;;;;;;;;;;;;;;21.11;60.99;100556.59;4099929;28;20017;-59
2023/07/28 07:27:28;;;;;;;;;;;;;;;21.11;60.85;100561.97;4098595;29;19953;-59
2023/07/28 07:29:30;;;;;;;;;;;;;;;21.10;60.93;100555.75;4098510;28;20361;-58
2023/07/28 07:31:32;;;;;;;;;;;;;;;21.10;60.87;100562.94;4098860;29;20045;-59
2023/07/28 07:33:34;;;;;;;;;;;;;;;21.10;60.82;100565.59;4099800;28;19977;-59
2023/07/28 07:35:37;;;;;;;;;;;;;;;21.10;60.82;100569.13;4099999;29;20290;-59
2023/07/28 07:37:39;;;;;;;;;;;;;;;21.10;60.53;100577.13;4099168;29;20345;-59
2023/07/28 07:39:41;;;;;;;;;;;;;;;21.10;60.92;100566.44;4099528;29;20017;-59
2023/07/28 07:41:42;;;;;;;;;;;;;;;21.10;60.92;100579.81;4099995;29;19969;-59
2023/07/28 07:43:44;;;;;;;;;;;;;;;21.08;60.94;100573.72;4099747;29;20129;-58
2023/07/28 07:45:47;;;;;;;;;;;;;;;21.09;60.96;100578.09;4099917;29;19924;-59
2023/07/28 07:47:48;;;;;;;;;;;;;;;21.10;60.84;100573.63;4099219;29;19993;-59
2023/07/28 07:49:50;;;;;;;;;;;;;;;21.09;61.13;100578.09;4099627;29;19958;-59
2023/07/28 07:51:51;;;;;;;;;;;;;;;21.10;61.09;100578.97;4099877;29;20333;-59
2023/07/28 07:53:53;;;;;;;;;;;;;;;21.10;60.69;100577.13;4099121;29;20381;-59
2023/07/28 07:55:55;;;;;;;;;;;;;;;21.09;61.10;100574.59;4099768;29;20377;-59
2023/07/28 07:57:57;;;;;;;;;;;;;;;21.09;61.07;100572.75;4098866;29;19931;-59
2023/07/28 07:59:59;;;;;;;;;;;;;;;21.09;61.32;100578.09;4099418;29;20353;-59
2023/07/28 08:02:02;;;;;;;;;;;;;;;21.09;61.12;100577.28;4099694;29;19926;-59
2023/07/28 08:04:04;;;;;;;;;;;;;;;21.09;60.94;100580.78;4099427;29;19922;-59
2023/07/28 08:06:05;;;;;;;;;;;;;;;21.10;61.12;100577.13;4099607;29;19923;-59
2023/07/28 08:08:07;;;;;;;;;;;;;;;21.09;61.07;100578.09;4098470;29;20317;-59
2023/07/28 08:10:09;;;;;;;;;;;;;;;21.10;60.93;100576.28;4099509;29;19922;-59
2023/07/28 08:12:11;;;;;;;;;;;;;;;21.10;60.91;100574.47;4099696;29;19933;-59
2023/07/28 08:14:12;;;;;;;;;;;;;;;21.11;60.94;100578.00;4099700;29;19926;-59
2023/07/28 08:16:14;;;;;;;;;;;;;;;21.10;61.11;100582.47;4099490;29;20396;-59
2023/07/28 08:18:16;;;;;;;;;;;;;;;21.09;60.79;100578.09;4098810;29;19933;-59
2023/07/28 08:20:18;;;;;;;;;;;;;;;21.10;60.78;100579.81;4099150;29;19977;-59
2023/07/28 08:22:19;;;;;;;;;;;;;;;21.10;60.94;100582.47;4099019;29;19926;-59
2023/07/28 08:24:21;;;;;;;;;;;;;;;21.10;61.34;100581.66;4099134;28;20349;-59
2023/07/28 08:26:22;;;;;;;;;;;;;;;21.11;61.06;100580.69;4099487;29;19985;-59
2023/07/28 08:28:24;;;;;;;;;;;;;;;21.12;61.04;100587.69;4098862;29;20397;-58
2023/07/28 08:30:28;;;;;;;;;;;;;;;21.12;61.22;100588.56;4097906;29;20330;-59
2023/07/28 08:32:30;;;;;;;;;;;;;;;21.13;61.12;100586.72;4099404;29;19962;-58
2023/07/28 08:34:31;;;;;;;;;;;;;;;21.12;60.99;100582.34;4099058;29;19926;-56
2023/07/28 08:36:33;;;;;;;;;;;;;;;21.14;60.96;100585.75;4099180;29;19922;-59
2023/07/28 08:38:35;;;;;;;;;;;;;;;21.13;60.99;100582.25;4098732;29;19922;-59
2023/07/28 08:40:36;;;;;;;;;;;;;;;21.13;61.13;100584.06;4099319;28;20043;-59
2023/07/28 08:42:39;;;;;;;;;;;;;;;21.14;60.63;100589.28;4102625;29;19922;-59
2023/07/28 08:44:41;;;;;;;;;;;;;;;21.14;61.24;100589.28;4102386;29;19945;-58
2023/07/28 08:46:42;;;;;;;;;;;;;;;21.16;60.96;100599.84;4102490;29;20420;-58
2023/07/28 08:48:45;;;;;;;;;;;;;;;21.15;61.26;100598.16;4101836;29;19958;-58
2023/07/28 08:50:47;;;;;;;;;;;;;;;21.15;60.95;100592.81;4101987;29;20346;-59
2023/07/28 08:52:50;;;;;;;;;;;;;;;21.16;61.38;100606.03;4102236;29;19922;-58
2023/07/28 08:54:52;;;;;;;;;;;;;;;21.17;61.23;100596.22;4102488;29;19926;-58
2023/07/28 08:56:53;;;;;;;;;;;;;;;21.18;61.02;100596.06;4102133;29;19977;-58
2023/07/28 08:58:59;;;;;;;;;;;;;;;21.18;61.44;100595.22;4101778;29;19934;-59
2023/07/28 09:01:01;;;;;;;;;;;;;;;21.18;61.41;100601.44;4102067;29;19930;-58
2023/07/28 09:03:02;;;;;;;;;;;;;;;21.20;61.34;100601.28;4102137;29;19930;-59
2023/07/28 09:05:07;;;;;;;;;;;;;;;21.20;61.62;100596.81;4101859;29;20076;-59
2023/07/28 09:07:09;;;;;;;;;;;;;;;21.21;61.52;100595.81;4101891;29;19926;-58
2023/07/28 09:09:11;;;;;;;;;;;;;;;21.21;61.49;100603.81;4101489;29;20001;-57
2023/07/28 09:11:13;;;;;;;;;;;;;;;21.22;61.32;100604.69;4101775;29;19930;-59
2023/07/28 09:13:15;;;;;;;;;;;;;;;21.23;61.22;100601.06;4102075;29;20393;-60
2023/07/28 09:15:18;;;;;;;;;;;;;;;21.22;60.86;100608.22;4102167;29;20374;-59
2023/07/28 09:17:20;;;;;;;;;;;;;;;21.22;60.82;100597.50;4101936;29;19922;-59
2023/07/28 09:19:22;;;;;;;;;;;;;;;21.21;61.11;100603.81;4099727;29;19960;-59
2023/07/28 09:21:23;;;;;;;;;;;;;;;21.23;61.50;100603.72;4101475;29;19922;-58
2023/07/28 09:23:29;;;;;;;;;;;;;;;21.21;61.92;100609.19;4102031;29;20271;-59
2023/07/28 09:25:31;;;;;;;;;;;;;;;21.22;61.75;100610.03;4101767;28;19923;-59
2023/07/28 09:27:33;;;;;;;;;;;;;;;21.21;61.87;100603.81;4084499;29;19927;-58
2023/07/28 09:29:34;;;;;;;;;;;;;;;21.21;61.94;100603.81;4101178;29;19970;-59
2023/07/28 09:31:36;;;;;;;;;;;;;;;21.21;61.57;100601.16;4101664;29;19922;-59
2023/07/28 09:33:42;;;;;;;;;;;;;;;21.21;61.78;100606.50;4101322;29;19922;-59
2023/07/28 09:35:50;;;;;;;;;;;;;;;21.21;61.94;100609.19;4101880;29;19926;-59
2023/07/28 09:37:54;;;;;;;;;;;;;;;21.22;61.61;100607.38;4101568;29;20484;-58
2023/07/28 09:39:57;;;;;;;;;;;;;;;21.21;61.95;100601.16;4101129;29;19922;-58
2023/07/28 09:41:59;;;;;;;;;;;;;;;21.21;61.62;100606.50;4101372;29;19923;-59
2023/07/28 09:44:01;;;;;;;;;;;;;;;21.22;62.03;100610.03;4101525;29;20424;-59
2023/07/28 09:46:09;;;;;;;;;;;;;;;21.22;62.44;100610.03;4101646;29;20366;-58
2023/07/28 09:48:11;;;;;;;;;;;;;;;21.22;62.35;100607.38;4100521;29;20389;-58
2023/07/28 09:50:14;;;;;;;;;;;;;;;21.23;62.35;100606.41;4101343;29;20005;-59
2023/07/28 09:52:18;;;;;;;;;;;;;;;21.23;62.24;100601.88;4100650;28;19954;-58
2023/07/28 09:54:29;;;;;;;;;;;;;;;21.25;62.36;100598.25;4101327;29;19926;-58
2023/07/28 09:56:31;;;;;;;;;;;;;;;21.26;62.32;100598.09;4101562;29;19922;-58
2023/07/28 09:58:36;;;;;;;;;;;;;;;21.26;62.21;100595.44;4098856;29;19932;-58
2023/07/28 10:00:38;;;;;;;;;;;;;;;21.32;63.54;100594.91;4097355;29;20048;-59
2023/07/28 10:02:40;;;;;;;;;;;;;;;21.47;62.90;100598.16;4098191;29;20318;-60
2023/07/28 10:04:42;;;;;;;;;;;;;;;21.57;61.60;100590.25;4093541;28;19930;-60
2023/07/28 10:06:44;;;;;;;;;;;;;;;21.63;61.27;100591.53;4098738;29;20306;-59
2023/07/28 10:08:45;;;;;;;;;;;;;;;21.67;60.93;100588.47;4093973;29;19930;-59
2023/07/28 10:10:47;;;;;;;;;;;;;;;21.69;60.82;100591.03;4094383;29;20017;-60
2023/07/28 10:12:49;;;;;;;;;;;;;;;21.65;60.58;100590.44;4095798;29;19953;-61
2023/07/28 10:15:01;;;;;;;;;;;;;;;21.66;60.16;100592.13;4096530;29;20391;-58
2023/07/28 10:17:06;;;;;;;;;;;;;;;21.70;60.67;100593.56;4091708;29;20345;-60
2023/07/28 10:19:08;;;;;;;;;;;;;;;21.82;60.38;100591.69;4093249;29;19977;-59
2023/07/28 10:21:15;;;;;;;;;;;;;;;21.91;60.79;100582.00;4095132;29;19926;-59
2023/07/28 10:23:19;;;;;;;;;;;;;;;21.98;59.90;100583.19;4097626;29;19926;-60
2023/07/28 10:25:25;;;;;;;;;;;;;;;22.08;60.30;100583.22;4097160;28;19933;-61
2023/07/28 10:27:39;;;;;;;;;;;;;;;22.18;59.03;100578.75;4092002;29;20025;-62
2023/07/28 10:29:55;;;;;;;;;;;;;;;22.28;59.04;100578.81;4078897;29;19958;-61